createdAt,value
2018-07-15T00:01:24.813Z,69.70
2018-07-15T00:03:51.967Z,69.37
2018-07-15T00:06:19.103Z,68.60
2018-07-15T00:08:46.320Z,68.68
2018-07-15T00:11:13.500Z,68.76
2018-07-15T00:13:40.595Z,70.11
2018-07-15T00:16:07.800Z,71.04
2018-07-15T00:18:34.931Z,71.62
2018-07-15T00:21:02.399Z,73.38
2018-07-15T00:23:29.539Z,75.10
2018-07-15T00:25:56.743Z,74.28
2018-07-15T00:28:23.868Z,72.66
2018-07-15T00:30:51.010Z,72.08
2018-07-15T00:33:18.270Z,71.49
2018-07-15T00:35:45.407Z,71.21
2018-07-15T00:38:12.549Z,75.21
2018-07-15T00:40:39.724Z,76.18
2018-07-15T00:43:06.929Z,74.54
2018-07-15T00:45:34.061Z,73.32
2018-07-15T00:48:01.227Z,73.21
2018-07-15T00:50:28.376Z,73.91
2018-07-15T00:52:55.547Z,74.42
2018-07-15T00:55:22.752Z,75.60
2018-07-15T00:57:49.834Z,74.66
2018-07-15T01:01:21.306Z,74.59
2018-07-15T01:03:48.432Z,73.94
2018-07-15T01:06:15.568Z,74.42
2018-07-15T01:08:42.709Z,74.53
2018-07-15T01:11:16.644Z,77.00
2018-07-15T01:13:43.792Z,78.60
2018-07-15T01:16:10.936Z,77.85
2018-07-15T01:18:38.064Z,76.91
2018-07-15T01:21:05.213Z,76.78
2018-07-15T01:23:32.335Z,78.47
2018-07-15T01:25:59.508Z,77.93
2018-07-15T01:28:26.680Z,77.97
2018-07-15T01:30:53.780Z,76.30
2018-07-15T01:33:20.917Z,76.02
2018-07-15T01:35:48.009Z,74.82
2018-07-15T01:38:15.124Z,74.19
2018-07-15T01:40:42.297Z,75.29
2018-07-15T01:43:09.431Z,75.89
2018-07-15T01:45:36.632Z,75.63
2018-07-15T01:48:03.828Z,75.81
2018-07-15T01:50:31.028Z,75.27
2018-07-15T01:52:58.181Z,78.21
2018-07-15T01:55:25.357Z,78.29
2018-07-15T01:57:52.440Z,77.07
2018-07-15T02:00:19.572Z,76.20
2018-07-15T02:02:46.760Z,76.20
2018-07-15T02:05:13.994Z,75.56
2018-07-15T02:07:41.129Z,75.35
2018-07-15T02:10:08.274Z,74.93
2018-07-15T02:12:35.393Z,74.92
2018-07-15T02:15:02.585Z,76.32
2018-07-15T02:17:29.739Z,77.32
2018-07-15T02:19:56.932Z,76.73
2018-07-15T02:22:24.055Z,77.57
2018-07-15T02:24:51.375Z,77.84
2018-07-15T02:27:18.528Z,76.76
2018-07-15T02:29:45.703Z,76.24
2018-07-15T02:32:12.881Z,76.65
2018-07-15T02:34:40.100Z,77.26
2018-07-15T02:37:07.317Z,78.40
2018-07-15T02:39:34.464Z,79.34
2018-07-15T02:42:01.628Z,80.80
2018-07-15T02:44:28.757Z,80.72
2018-07-15T02:46:55.852Z,79.81
2018-07-15T02:49:22.968Z,79.35
2018-07-15T02:51:50.098Z,78.09
2018-07-15T02:54:17.244Z,78.59
2018-07-15T02:56:44.406Z,78.79
2018-07-15T02:59:11.553Z,78.43
2018-07-15T03:01:38.652Z,78.13
2018-07-15T03:04:05.793Z,78.61
2018-07-15T03:06:32.876Z,79.57
2018-07-15T03:09:00.048Z,78.63
2018-07-15T03:11:27.182Z,80.30
2018-07-15T03:13:54.308Z,81.96
2018-07-15T03:16:21.574Z,80.78
2018-07-15T03:18:48.666Z,80.75
2018-07-15T03:21:15.766Z,82.33
2018-07-15T03:23:42.896Z,82.01
2018-07-15T03:26:10.012Z,81.75
2018-07-15T03:28:37.131Z,80.18
2018-07-15T03:31:04.360Z,80.37
2018-07-15T03:33:31.524Z,82.84
2018-07-15T03:35:58.684Z,83.94
2018-07-15T03:38:25.777Z,82.51
2018-07-15T03:40:52.877Z,81.21
2018-07-15T03:43:20.063Z,80.71
2018-07-15T03:45:47.240Z,79.85
2018-07-15T03:48:14.360Z,78.49
2018-07-15T03:50:41.480Z,79.47
2018-07-15T03:53:08.617Z,78.70
2018-07-15T03:55:35.731Z,80.43
2018-07-15T03:58:02.873Z,81.78
2018-07-15T04:00:30.043Z,80.39
2018-07-15T04:02:57.169Z,80.35
2018-07-15T04:05:24.301Z,79.37
2018-07-15T04:07:51.405Z,78.37
2018-07-15T04:10:18.527Z,78.24
2018-07-15T04:12:45.672Z,77.75
2018-07-15T04:15:12.851Z,77.07
2018-07-15T04:17:39.969Z,76.57
2018-07-15T04:20:07.151Z,77.12
2018-07-15T04:22:34.285Z,77.28
2018-07-15T04:25:01.437Z,78.43
2018-07-15T04:27:28.541Z,79.42
2018-07-15T04:29:55.757Z,78.40
2018-07-15T04:32:22.905Z,77.95
2018-07-15T04:34:50.037Z,77.47
2018-07-15T04:37:18.123Z,77.16
2018-07-15T04:39:45.225Z,76.62
2018-07-15T04:42:12.455Z,76.84
2018-07-15T04:44:39.582Z,76.13
2018-07-15T04:47:06.702Z,75.55
2018-07-15T04:49:33.876Z,75.11
2018-07-15T04:52:01.016Z,75.52
2018-07-15T04:54:28.141Z,75.63
2018-07-15T04:56:55.228Z,75.11
2018-07-15T04:59:22.394Z,74.80
2018-07-15T05:01:49.496Z,75.66
2018-07-15T05:04:16.688Z,75.24
2018-07-15T05:06:44.228Z,74.97
2018-07-15T05:09:11.415Z,75.57
2018-07-15T05:11:40.671Z,74.06
2018-07-15T05:14:08.112Z,72.11
2018-07-15T05:16:35.579Z,72.35
2018-07-15T05:19:02.739Z,70.71
2018-07-15T05:21:29.954Z,69.56
2018-07-15T05:23:57.093Z,68.64
2018-07-15T05:26:24.222Z,68.07
2018-07-15T05:28:51.404Z,67.41
2018-07-15T05:31:18.541Z,66.09
2018-07-15T05:33:45.707Z,65.32
2018-07-15T05:36:12.889Z,66.99
2018-07-15T05:38:40.032Z,66.52
2018-07-15T05:42:26.918Z,66.62
2018-07-15T05:44:54.043Z,67.87
2018-07-15T05:47:21.180Z,66.95
2018-07-15T05:49:48.389Z,67.46
2018-07-15T05:52:15.534Z,66.93
2018-07-15T05:54:42.695Z,66.51
2018-07-15T05:57:09.839Z,65.41
2018-07-15T05:59:37.043Z,66.11
2018-07-15T06:02:04.204Z,65.23
2018-07-15T06:04:31.368Z,62.35
2018-07-15T06:06:58.529Z,62.55
2018-07-15T06:09:25.632Z,61.88
2018-07-15T06:11:52.812Z,61.43
2018-07-15T06:14:19.944Z,61.11
2018-07-15T06:16:47.104Z,61.35
2018-07-15T06:19:14.264Z,60.86
2018-07-15T06:21:41.452Z,57.82
2018-07-15T06:24:08.568Z,57.83
2018-07-15T06:26:35.677Z,58.06
2018-07-15T06:29:02.828Z,57.67
2018-07-15T06:31:29.970Z,55.54
2018-07-15T06:33:57.159Z,55.81
2018-07-15T06:36:24.309Z,55.08
2018-07-15T06:38:51.465Z,53.46
2018-07-15T06:41:18.608Z,51.46
2018-07-15T06:43:45.768Z,53.28
2018-07-15T06:46:12.931Z,51.63
2018-07-15T06:48:40.101Z,51.21
2018-07-15T06:51:07.472Z,50.23
2018-07-15T06:53:34.648Z,50.04
2018-07-15T06:56:02.619Z,49.19
2018-07-15T06:58:29.627Z,47.94
2018-07-15T07:00:56.811Z,48.92
2018-07-15T07:03:24.401Z,47.54
2018-07-15T07:05:51.577Z,49.70
2018-07-15T07:08:18.679Z,47.85
2018-07-15T07:10:45.853Z,48.83
2018-07-15T07:13:13.005Z,49.10
2018-07-15T07:15:40.168Z,48.37
2018-07-15T07:18:07.353Z,46.52
2018-07-15T07:20:34.496Z,47.27
2018-07-15T07:23:01.656Z,46.50
2018-07-15T07:25:28.795Z,46.21
2018-07-15T07:27:55.890Z,45.55
2018-07-15T07:30:23.022Z,45.98
2018-07-15T07:32:50.224Z,46.18
2018-07-15T07:35:17.467Z,45.81
2018-07-15T07:37:44.652Z,45.66
2018-07-15T07:40:11.804Z,44.72
2018-07-15T07:42:38.932Z,45.45
2018-07-15T07:45:06.092Z,43.74
2018-07-15T07:47:33.279Z,44.37
2018-07-15T07:50:00.428Z,44.88
2018-07-15T07:52:27.545Z,44.17
2018-07-15T07:54:54.685Z,44.15
2018-07-15T07:57:21.916Z,43.82
2018-07-15T07:59:49.061Z,45.21
2018-07-15T08:02:16.184Z,43.88
2018-07-15T08:04:43.352Z,42.48
2018-07-15T08:07:10.464Z,43.63
2018-07-15T08:09:37.651Z,44.05
2018-07-15T08:12:04.820Z,42.53
2018-07-15T08:14:32.066Z,42.40
2018-07-15T08:16:59.217Z,42.11
2018-07-15T08:19:26.391Z,42.33
2018-07-15T08:21:53.768Z,43.10
2018-07-15T08:24:20.935Z,42.87
2018-07-15T08:26:48.088Z,42.71
2018-07-15T08:29:15.256Z,43.11
2018-07-15T08:31:42.375Z,42.31
2018-07-15T08:34:09.513Z,43.15
2018-07-15T08:36:36.628Z,44.52
2018-07-15T08:39:05.612Z,43.53
2018-07-15T08:41:32.749Z,44.35
2018-07-15T08:43:59.896Z,43.73
2018-07-15T08:46:27.078Z,44.61
2018-07-15T08:48:54.254Z,45.41
2018-07-15T08:51:21.400Z,45.44
2018-07-15T08:53:48.562Z,46.92
2018-07-15T08:56:15.740Z,45.25
2018-07-15T08:58:42.876Z,45.66
2018-07-15T09:01:10.076Z,44.31
2018-07-15T09:03:37.283Z,43.66
2018-07-15T09:06:04.414Z,45.28
2018-07-15T09:08:31.568Z,46.14
2018-07-15T09:10:58.903Z,44.36
2018-07-15T09:13:26.161Z,43.29
2018-07-15T09:15:53.288Z,43.00
2018-07-15T09:18:20.454Z,43.60
2018-07-15T09:20:48.513Z,43.61
2018-07-15T09:23:15.658Z,44.71
2018-07-15T09:25:42.817Z,44.07
2018-07-15T09:28:09.994Z,43.41
2018-07-15T09:30:37.141Z,43.94
2018-07-15T09:33:04.721Z,43.05
2018-07-15T09:35:31.908Z,44.04
2018-07-15T09:37:58.997Z,42.27
2018-07-15T09:40:26.179Z,41.09
2018-07-15T09:42:53.357Z,42.24
2018-07-15T09:45:20.452Z,39.74
2018-07-15T09:47:47.608Z,39.21
2018-07-15T09:50:14.725Z,36.59
2018-07-15T09:52:41.913Z,36.56
2018-07-15T09:55:09.504Z,36.71
2018-07-15T09:57:36.775Z,36.12
2018-07-15T10:00:04.717Z,35.38
2018-07-15T10:02:31.858Z,33.31
2018-07-15T10:04:59.044Z,34.93
2018-07-15T10:07:26.192Z,33.00
2018-07-15T10:09:53.412Z,33.51
2018-07-15T10:12:20.599Z,33.15
2018-07-15T10:14:47.773Z,32.65
2018-07-15T10:17:14.961Z,32.85
2018-07-15T10:19:42.109Z,32.61
2018-07-15T10:22:09.224Z,32.19
2018-07-15T10:24:36.460Z,31.32
2018-07-15T10:27:03.751Z,31.45
2018-07-15T10:29:30.959Z,34.47
2018-07-15T10:31:58.161Z,35.70
2018-07-15T10:34:25.717Z,35.89
2018-07-15T10:36:52.832Z,35.57
2018-07-15T10:39:20.100Z,35.88
2018-07-15T10:41:47.521Z,35.45
2018-07-15T10:44:14.672Z,35.55
2018-07-15T10:46:41.891Z,35.63
2018-07-15T10:49:09.070Z,35.66
2018-07-15T10:51:36.230Z,34.89
2018-07-15T10:54:03.395Z,34.58
2018-07-15T10:56:30.554Z,33.35
2018-07-15T10:58:57.652Z,31.32
2018-07-15T11:01:24.841Z,32.17
2018-07-15T11:03:51.953Z,32.88
2018-07-15T11:06:19.133Z,32.61
2018-07-15T11:08:46.220Z,33.65
2018-07-15T11:11:13.388Z,32.97
2018-07-15T11:13:40.585Z,33.05
2018-07-15T11:16:07.718Z,32.31
2018-07-15T11:18:34.833Z,32.50
2018-07-15T11:21:02.041Z,31.31
2018-07-15T11:23:29.195Z,30.32
2018-07-15T11:25:56.361Z,30.08
2018-07-15T11:28:23.568Z,29.00
2018-07-15T11:30:50.919Z,28.07
2018-07-15T11:33:18.099Z,28.75
2018-07-15T11:35:45.252Z,27.68
2018-07-15T11:38:12.379Z,27.86
2018-07-15T11:40:39.488Z,28.71
2018-07-15T11:43:06.632Z,28.47
2018-07-15T11:45:33.789Z,27.04
2018-07-15T11:48:00.936Z,27.58
2018-07-15T11:50:28.059Z,29.71
2018-07-15T11:52:55.237Z,27.67
2018-07-15T11:55:22.361Z,28.49
2018-07-15T11:57:49.493Z,29.79
2018-07-15T12:00:16.663Z,31.01
2018-07-15T12:02:43.813Z,34.17
2018-07-15T12:05:10.992Z,36.38
2018-07-15T12:07:38.140Z,36.37
2018-07-15T12:10:05.710Z,35.95
2018-07-15T12:12:32.899Z,36.74
2018-07-15T12:15:00.079Z,36.02
2018-07-15T12:17:27.213Z,36.55
2018-07-15T12:19:54.396Z,37.75
2018-07-15T12:22:21.542Z,37.44
2018-07-15T12:24:48.682Z,37.51
2018-07-15T12:27:15.854Z,38.49
2018-07-15T12:29:43.025Z,36.99
2018-07-15T12:32:10.125Z,37.89
2018-07-15T12:34:37.332Z,37.76
2018-07-15T12:37:04.456Z,37.70
2018-07-15T12:39:31.601Z,36.80
2018-07-15T12:41:58.706Z,36.38
2018-07-15T12:44:25.872Z,36.05
2018-07-15T12:46:53.036Z,34.15
2018-07-15T12:49:20.165Z,32.63
2018-07-15T12:51:47.316Z,32.62
2018-07-15T12:54:14.497Z,33.00
2018-07-15T12:56:41.696Z,32.75
2018-07-15T12:59:08.885Z,30.55
2018-07-15T13:01:36.103Z,28.61
2018-07-15T13:04:03.272Z,27.72
2018-07-15T13:06:30.447Z,28.19
2018-07-15T13:08:57.617Z,27.93
2018-07-15T13:11:24.903Z,28.10
2018-07-15T13:13:52.085Z,29.17
2018-07-15T13:16:19.315Z,28.15
2018-07-15T13:18:46.448Z,27.49
2018-07-15T13:21:13.680Z,27.62
2018-07-15T13:23:40.844Z,27.35
2018-07-15T13:26:08.059Z,28.17
2018-07-15T13:28:35.320Z,28.71
2018-07-15T13:31:02.493Z,27.10
2018-07-15T13:33:29.675Z,27.92
2018-07-15T13:35:56.962Z,27.65
2018-07-15T13:38:24.109Z,27.95
2018-07-15T13:40:51.274Z,27.31
2018-07-15T13:43:18.428Z,29.85
2018-07-15T13:45:45.668Z,31.22
2018-07-15T13:48:12.855Z,32.01
2018-07-15T13:50:40.065Z,32.52
2018-07-15T13:53:07.275Z,32.41
2018-07-15T13:55:34.465Z,35.78
2018-07-15T13:58:01.629Z,36.44
2018-07-15T14:00:28.832Z,37.53
2018-07-15T14:02:56.044Z,36.62
2018-07-15T14:05:23.201Z,37.10
2018-07-15T14:07:50.389Z,38.25
2018-07-15T14:10:17.627Z,39.10
2018-07-15T14:12:44.833Z,40.30
2018-07-15T14:15:12.080Z,41.00
2018-07-15T14:17:39.225Z,41.97
2018-07-15T14:20:06.581Z,41.48
2018-07-15T14:22:33.759Z,42.41
2018-07-15T14:25:00.956Z,42.55
2018-07-15T14:27:28.120Z,42.88
2018-07-15T14:29:55.285Z,43.78
2018-07-15T14:32:22.491Z,44.37
2018-07-15T14:34:49.665Z,44.71
2018-07-15T14:37:16.848Z,46.12
2018-07-15T14:39:44.030Z,46.10
2018-07-15T14:42:11.252Z,46.28
2018-07-15T14:44:39.177Z,47.38
2018-07-15T14:47:06.368Z,47.10
2018-07-15T14:49:33.744Z,46.56
2018-07-15T14:52:04.512Z,47.20
2018-07-15T14:54:31.784Z,47.27
2018-07-15T14:56:58.926Z,47.11
2018-07-15T14:59:26.053Z,47.26
2018-07-15T15:01:54.076Z,46.85
2018-07-15T15:04:21.188Z,48.28
2018-07-15T15:06:48.496Z,47.83
2018-07-15T15:09:15.624Z,47.75
2018-07-15T15:11:43.140Z,47.94
2018-07-15T15:14:10.434Z,48.81
2018-07-15T15:16:37.609Z,47.91
2018-07-15T15:19:04.828Z,46.79
2018-07-15T15:21:32.285Z,47.93
2018-07-15T15:23:59.420Z,46.53
2018-07-15T15:26:26.645Z,47.89
2018-07-15T15:28:53.872Z,48.01
2018-07-15T15:31:21.027Z,47.43
2018-07-15T15:33:48.205Z,47.45
2018-07-15T15:36:15.351Z,48.53
2018-07-15T15:38:42.503Z,47.98
2018-07-15T15:41:09.637Z,47.62
2018-07-15T15:43:36.811Z,47.28
2018-07-15T15:46:04.036Z,47.40
2018-07-15T15:48:31.523Z,46.71
2018-07-15T15:50:58.650Z,46.69
2018-07-15T15:53:25.774Z,45.90
2018-07-15T15:55:53.010Z,46.85
2018-07-15T15:58:20.137Z,47.06
2018-07-15T16:00:47.313Z,46.51
2018-07-15T16:03:14.505Z,46.43
2018-07-15T16:05:41.645Z,47.87
2018-07-15T16:08:08.815Z,48.99
2018-07-15T16:10:36.023Z,50.45
2018-07-15T16:13:03.262Z,51.03
2018-07-15T16:15:30.456Z,50.93
2018-07-15T16:17:57.685Z,50.81
2018-07-15T16:20:24.918Z,51.14
2018-07-15T16:22:52.376Z,50.89
2018-07-15T16:25:19.563Z,52.28
2018-07-15T16:27:46.771Z,50.78
2018-07-15T16:30:14.038Z,51.70
2018-07-15T16:32:41.381Z,51.29
2018-07-15T16:35:08.543Z,50.92
2018-07-15T16:37:35.681Z,50.42
2018-07-15T16:40:02.997Z,50.29
2018-07-15T16:42:30.197Z,50.23
2018-07-15T16:44:58.522Z,49.53
2018-07-15T16:47:25.875Z,50.74
2018-07-15T16:49:53.069Z,51.38
2018-07-15T16:52:20.191Z,51.27
2018-07-15T16:54:47.379Z,52.38
2018-07-15T16:57:14.581Z,51.95
2018-07-15T16:59:41.741Z,52.16
2018-07-15T17:02:08.984Z,51.58
2018-07-15T17:04:36.170Z,50.29
2018-07-15T17:07:03.643Z,51.54
2018-07-15T17:09:30.867Z,51.15
2018-07-15T17:11:58.048Z,52.85
2018-07-15T17:14:25.201Z,52.73
2018-07-15T17:16:52.400Z,53.61
2018-07-15T17:19:19.582Z,54.00
2018-07-15T17:21:46.784Z,55.00
2018-07-15T17:24:14.102Z,54.08
2018-07-15T17:26:41.327Z,54.90
2018-07-15T17:29:08.509Z,55.23
2018-07-15T17:31:35.728Z,55.96
2018-07-15T17:34:02.908Z,58.60
2018-07-15T17:36:30.071Z,57.90
2018-07-15T17:38:57.259Z,59.53
2018-07-15T17:41:24.475Z,62.02
2018-07-15T17:43:51.701Z,64.56
2018-07-15T17:46:18.920Z,66.24
2018-07-15T17:48:46.183Z,68.08
2018-07-15T17:51:13.396Z,70.40
2018-07-15T17:53:40.540Z,71.16
2018-07-15T17:56:07.736Z,69.39
2018-07-15T17:58:35.064Z,70.00
2018-07-15T18:01:02.194Z,70.09
2018-07-15T18:03:29.423Z,68.92
2018-07-15T18:05:56.648Z,67.45
2018-07-15T18:08:23.840Z,69.54
2018-07-15T18:10:51.009Z,71.19
2018-07-15T18:13:18.206Z,71.88
2018-07-15T18:15:45.389Z,72.57
2018-07-15T18:18:12.524Z,72.45
2018-07-15T18:20:40.036Z,72.29
2018-07-15T18:23:07.281Z,73.14
2018-07-15T18:25:34.477Z,72.48
2018-07-15T18:28:01.662Z,72.97
2018-07-15T18:30:28.831Z,73.40
2018-07-15T18:32:56.017Z,72.23
2018-07-15T18:35:23.181Z,72.77
2018-07-15T18:37:50.480Z,71.83
2018-07-15T18:40:17.626Z,72.01
2018-07-15T18:42:44.792Z,72.44
2018-07-15T18:45:11.953Z,71.13
2018-07-15T18:47:39.182Z,71.26
2018-07-15T18:50:06.571Z,70.38
2018-07-15T18:52:33.807Z,69.48
2018-07-15T18:55:00.998Z,70.18
2018-07-15T18:57:28.196Z,70.71
2018-07-15T18:59:55.417Z,70.84
2018-07-15T19:02:22.604Z,70.53
2018-07-15T19:04:49.753Z,69.85
2018-07-15T19:07:16.904Z,69.11
2018-07-15T19:09:44.324Z,69.19
2018-07-15T19:12:11.528Z,68.54
2018-07-15T19:14:38.655Z,68.22
2018-07-15T19:19:39.804Z,67.56
2018-07-15T19:22:06.932Z,67.02
2018-07-15T19:24:34.180Z,69.29
2018-07-15T19:27:01.340Z,70.88
2018-07-15T19:29:28.563Z,71.46
2018-07-15T19:31:55.782Z,69.46
2018-07-15T19:34:23.013Z,71.02
2018-07-15T19:36:50.218Z,72.68
2018-07-15T19:39:17.420Z,70.70
2018-07-15T19:41:44.635Z,70.94
2018-07-15T19:44:11.731Z,71.66
2018-07-15T19:46:38.908Z,72.21
2018-07-15T19:49:06.041Z,71.36
2018-07-15T19:51:33.181Z,70.35
2018-07-15T19:54:00.342Z,71.28
2018-07-15T19:56:27.504Z,75.20
2018-07-15T19:58:54.643Z,76.89
2018-07-15T20:01:21.831Z,75.03
2018-07-15T20:03:48.901Z,73.81
2018-07-15T20:06:16.069Z,73.49
2018-07-15T20:08:43.203Z,73.44
2018-07-15T20:11:10.425Z,73.78
2018-07-15T20:13:37.584Z,73.81
2018-07-15T20:16:04.830Z,74.08
2018-07-15T20:18:32.032Z,74.29
2018-07-15T20:20:59.309Z,74.51
2018-07-15T20:23:26.417Z,72.55
2018-07-15T20:25:53.542Z,71.97
2018-07-15T20:28:20.725Z,72.64
2018-07-15T20:30:47.873Z,72.17
2018-07-15T20:33:15.009Z,73.80
2018-07-15T20:35:42.129Z,73.16
2018-07-15T20:38:09.256Z,73.79
2018-07-15T20:40:36.445Z,73.73
2018-07-15T20:43:03.659Z,74.85
2018-07-15T20:45:30.859Z,75.59
2018-07-15T20:47:58.037Z,74.42
2018-07-15T20:50:25.231Z,75.71
2018-07-15T20:52:52.680Z,75.98
2018-07-15T20:55:19.801Z,75.90
2018-07-15T20:57:46.956Z,75.60
2018-07-15T21:00:14.133Z,77.65
2018-07-15T21:02:41.307Z,77.96
2018-07-15T21:05:08.407Z,79.00
2018-07-15T21:07:35.505Z,79.05
2018-07-15T21:10:03.006Z,78.84
2018-07-15T21:12:30.148Z,80.02
2018-07-15T21:14:57.272Z,80.00
2018-07-15T21:17:24.428Z,80.07
2018-07-15T21:19:51.579Z,80.21
2018-07-15T21:22:18.711Z,78.37
2018-07-15T21:24:45.810Z,78.75
2018-07-15T21:27:12.931Z,77.02
2018-07-15T21:29:40.082Z,78.12
2018-07-15T21:32:07.226Z,78.89
2018-07-15T21:34:34.469Z,77.19
2018-07-15T21:37:01.609Z,79.30
2018-07-15T21:39:28.744Z,78.90
2018-07-15T21:41:55.884Z,78.88
2018-07-15T21:44:23.145Z,78.86
2018-07-15T21:46:50.199Z,77.26
2018-07-15T21:49:17.312Z,79.47
2018-07-15T21:51:44.420Z,78.21
2018-07-15T21:54:11.564Z,78.46
2018-07-15T21:56:45.396Z,77.55
2018-07-15T21:59:12.524Z,79.43
2018-07-15T22:01:41.719Z,78.86
2018-07-15T22:04:09.599Z,79.09
2018-07-15T22:06:48.288Z,78.49
2018-07-15T22:09:27.712Z,79.22
2018-07-15T22:11:54.988Z,79.28
2018-07-15T22:14:22.137Z,78.19
2018-07-15T22:16:49.321Z,77.90
2018-07-15T22:19:16.504Z,78.63
2018-07-15T22:21:43.681Z,79.89
2018-07-15T22:24:10.789Z,78.52
2018-07-15T22:26:37.960Z,78.51
2018-07-15T22:29:05.132Z,77.80
2018-07-15T22:31:32.261Z,77.53
2018-07-15T22:33:59.408Z,77.97
2018-07-15T22:36:26.575Z,78.53
2018-07-15T22:38:53.694Z,80.73
2018-07-15T22:41:20.869Z,81.98
2018-07-15T22:43:47.940Z,82.25
2018-07-15T22:46:15.104Z,80.96
2018-07-15T22:48:42.244Z,79.67
2018-07-15T22:51:09.392Z,78.30
2018-07-15T22:53:36.603Z,77.78
2018-07-15T22:56:03.823Z,78.53
2018-07-15T22:58:31.000Z,77.91
2018-07-15T23:00:58.160Z,80.32
2018-07-15T23:03:25.282Z,80.00
2018-07-15T23:06:03.822Z,79.07
2018-07-15T23:08:31.869Z,80.65
2018-07-15T23:10:59.026Z,80.36
2018-07-15T23:13:26.143Z,82.07
2018-07-15T23:15:53.308Z,82.05
2018-07-15T23:18:20.815Z,83.15
2018-07-15T23:20:48.633Z,82.85
2018-07-15T23:23:16.122Z,81.31
2018-07-15T23:25:43.274Z,81.87
2018-07-15T23:28:11.445Z,81.76
2018-07-15T23:30:39.382Z,80.97
2018-07-15T23:33:06.987Z,80.07
2018-07-15T23:35:34.194Z,80.02
2018-07-15T23:38:01.342Z,81.35
2018-07-15T23:40:28.492Z,84.72
2018-07-15T23:42:56.399Z,83.68
2018-07-15T23:45:24.449Z,83.75
2018-07-15T23:47:51.848Z,83.79
2018-07-15T23:50:18.992Z,82.84
2018-07-15T23:52:46.155Z,83.60
2018-07-15T23:55:13.312Z,85.31
2018-07-15T23:57:40.448Z,84.22
